• Join FlightAware (Why Join?)
  • Login
  • US Flag 
02:52PM EDT


 

Airport Tracker/Info


-or-


 

Live Flight TrackerFlight Track Log ✈ AMF6907 ✈ 05-Jul-2013 ✈ TJSJ / SJU - TNCM / SXM

Flight Track Log - Related Links

Times and Time Zones

All times are in EDT time to prevent confusion due to time zone crossing. See the AMF6907 flight status page for this flight to view local times or setup timezone preferences in your user account.

Time Position Orientation Groundspeed Altitude Reporting Facility
EDT Latitude Longitude Course Direction KTS MPH feet Rate Location/Type
11:03AM 18.4333 -65.9667 62° Northeast 150 173 1,000  Level San Juan Center
11:04AM 18.4500 -65.9333 62° Northeast 140 161 3,200 2,160 Climbing San Juan Center
11:05AM 18.4500 -65.8833 90° East 150 173 5,400 2,040 Climbing San Juan Center
11:06AM 18.4500 -65.8500 90° East 140 161 7,400 1,740 Climbing San Juan Center
11:07AM 18.4500 -65.8000 90° East 150 173 8,900 1,380 Climbing San Juan Center
11:08AM 18.4500 -65.7667 90° East 160 184 10,300 1,020 Climbing San Juan Center
11:09AM 18.4500 -65.7167 90° East 170 196 11,000 300 Climbing San Juan Center
11:10AM 18.4333 -65.6500 105° East 230 265 11,000  Level San Juan Center
11:11AM 18.4500 -65.5833 75° East 240 276 11,000  Level San Juan Center
11:12AM 18.4333 -65.5000 102° East 250 288 11,000  Level San Juan Center
11:13AM 18.4333 -65.4333 90° East 250 288 11,000  Level San Juan Center
11:14AM 18.4333 -65.3500 90° East 250 288 11,000  Level San Juan Center
11:15AM 18.4333 -65.2833 90° East 250 288 11,000  Level San Juan Center
11:16AM 18.4333 -65.2000 90° East 250 288 11,000  Level San Juan Center
11:17AM 18.4333 -65.1333 90° East 250 288 11,000  Level San Juan Center
11:18AM 18.4333 -65.0500 90° East 250 288 11,000  Level San Juan Center
11:19AM 18.4333 -64.9833 90° East 260 299 11,000  Level San Juan Center
11:20AM 18.4167 -64.9000 102° East 250 288 11,000  Level San Juan Center
11:21AM 18.4167 -64.8333 90° East 250 288 11,000  Level San Juan Center
11:22AM 18.4167 -64.7500 90° East 260 299 11,000  Level San Juan Center
11:23AM 18.4167 -64.6833 90° East 260 299 11,000  Level San Juan Center
11:24AM 18.4167 -64.6000 90° East 250 288 11,000  Level San Juan Center
11:25AM 18.4167 -64.5333 90° East 250 288 11,000  Level San Juan Center
11:26AM 18.4167 -64.4500 90° East 250 288 11,000  Level San Juan Center
11:27AM 18.4000 -64.3833 105° East 250 288 11,000  Level San Juan Center
11:28AM 18.4000 -64.3167 90° East 260 299 11,000  Level San Juan Center
11:29AM 18.4000 -64.2333 90° East 250 288 11,000  Level San Juan Center
11:30AM 18.4000 -64.1667 90° East 250 288 11,000 -300 Level San Juan Center
11:31AM 18.4000 -64.0833 90° East 260 299 10,500 -540 Descending San Juan Center
11:32AM 18.4000 -64.0000 90° East 260 299 10,000 -300 Descending San Juan Center
11:33AM 18.3833 -63.9333 105° East 260 299 10,000  Level San Juan Center
11:34AM 18.3833 -63.8667 90° East 250 288 10,000  Level San Juan Center
11:35AM 18.3833 -63.7833 90° East 250 288 10,000  Level San Juan Center
11:36AM 18.3833 -63.7167 90° East 250 288 10,000  Level San Juan Center
11:37AM 18.3833 -63.6500 90° East 250 288 10,000  Level San Juan Center
11:39AM 18.3284 -63.5744 127° Southeast  Level FlightAware Approximate
11:46AM 18.0810 -63.1905 122° Southeast  Level FlightAware Approximate
11:47AM 18.0519 -63.1352 136° Southeast  Level FlightAware Approximate
11:48AM 18.0410 -63.1089 90° East  Level Estimated
11:49AM 18.0410 -63.1089 90° East  Level Estimated
11:50AM 18.0410 -63.1089 90° East  Level Estimated
11:51AM 18.0410 -63.1089 90° East  Level Estimated
11:52AM 18.0410 -63.1089 90° East  Level Estimated
11:53AM 18.0410 -63.1089 90° East  Level Estimated
11:54AM 18.0410 -63.1089 90° East  Level Estimated
11:55AM 18.0410 -63.1089 90° East  Level Estimated
11:56AM 18.0410 -63.1089 90° East  Level Estimated
11:57AM 18.0410 -63.1089 90° East  Level Estimated
11:58AM 18.0410 -63.1089 90° East  Level Estimated
11:59AM 18.0410 -63.1089 90° East  Level Estimated
12:00PM 18.0410 -63.1089 90° East  Level Estimated
12:01PM 18.0410 -63.1089 90° East  Level Estimated
12:02PM 18.0410 -63.1089 90° East  Level Estimated
12:03PM 18.0410 -63.1089 90° East  Level Estimated
12:04PM 18.0410 -63.1089 90° East  Level Estimated